Raleigh County Memorial Airport
KBKW : now visible

Airfield :











YOU CAN JOIN US ON...

 
LOGIN :

Register | Disclaimer

   EN    FR    IT 

 









Legend :    VFR   Marginal VFR   IFR   Intensive IFR   Very Intensive IFR
Visi :
Ceiling :
>= 8 km
>= 3000ft
5 to 8 km
1000 to 3000 ft
1500m to 5 km
500 to 1000 ft
800 to 1500m
200 to 500 ft
< 800m
< 200 ft
Symbols :   Thunderstorms  Fog  Heavy snow  Heavy precipitations  Wind > 20 kt






- Airport Elevation : 2504 ft
- IATA code : BKW


KBKW - Raleigh County Memorial

CURRENT METAR :
  • 130151Z AUTO 00000KT 9SM CLR 20/20 A3016 RMK AO2 SLP179 T02000200

EXPIRED METARs :
  • 130058Z AUTO 08004KT 10SM SCT003 20/20 A3014 RMK AO2 T02000200
  • 130051Z AUTO 08003KT 10SM BKN003 20/20 A3014 RMK AO2 SLP176 T02000200
  • 122351Z AUTO 02003KT 10SM BKN002 OVC110 21/21 A3015 RMK AO2 VIS 1 1/4 RWY19 LTG DSNT NW RAE03B20E40 SLP179 P0000 60235 T02060206 10289 20200 51007
  • 122333Z AUTO 05003KT 3SM -RA BR BKN002 21/21 A3014 RMK AO2 VIS 1 1/4 RWY19 LTG DSNT N RAE03B20 P0000 T02060206

TAF KBKW
Valid from the 13 at 01:00 until the 14 at 00:00 UTC


130120Z 1301/1324 VRB04KT P6SM BKN030
TEMPO 1301/1303 BKN003
FM130300 00000KT 4SM BR BKN003
FM131300 VRB04KT 5SM BR BKN014
FM131500 09005KT P6SM SCT018
FM132100 09005KT P6SM -SHRA BKN040
KZID FIR / North America



MET'MAP, your aeronautical weather chart ! - Copyright ORBIFLY December 2007 - Disclaimer

ORBIFLY MET'MAP TEAM :

Programming & Development : Alexandra Zaïnal
Concept & original design : Baudouin d'Aumeries
Assistance for programming : Marc-Olivier Méhu
Technical & hardware support : Manuel Goepfert

Contact : metmap@orbifly.com




SOURCES & CREDITS :

   NOAA       Earth
Advisory